createdAt,value
2022-08-29T00:00:40.675Z,997.18
2022-08-29T00:01:40.668Z,997.27
2022-08-29T00:02:40.722Z,997.24
2022-08-29T00:03:40.910Z,997.32
2022-08-29T00:04:40.697Z,997.22
2022-08-29T00:05:42.433Z,997.20
2022-08-29T00:06:40.620Z,997.25
2022-08-29T00:07:40.618Z,997.22
2022-08-29T00:08:40.609Z,997.24
2022-08-29T00:09:40.623Z,997.22
2022-08-29T00:10:40.595Z,997.18
2022-08-29T00:11:45.312Z,997.19
2022-08-29T00:12:41.579Z,997.18
2022-08-29T00:13:40.571Z,997.21
2022-08-29T00:14:40.590Z,997.15
2022-08-29T00:15:44.471Z,997.14
2022-08-29T00:16:40.771Z,997.11
2022-08-29T00:17:40.536Z,997.22
2022-08-29T00:18:40.535Z,997.18
2022-08-29T00:19:40.551Z,997.22
2022-08-29T00:20:40.525Z,997.20
2022-08-29T00:21:40.512Z,997.16
2022-08-29T00:22:40.501Z,997.17
2022-08-29T00:23:40.501Z,997.24
2022-08-29T00:24:40.515Z,997.21
2022-08-29T00:25:40.474Z,997.13
2022-08-29T00:26:40.467Z,997.17
2022-08-29T00:27:40.461Z,997.21
2022-08-29T00:28:40.452Z,997.16
2022-08-29T00:29:40.442Z,997.16
2022-08-29T00:30:40.465Z,997.17
2022-08-29T00:31:40.489Z,997.15
2022-08-29T00:32:40.427Z,997.17
2022-08-29T00:33:40.415Z,997.17
2022-08-29T00:34:40.401Z,997.25
2022-08-29T00:35:40.595Z,997.18
2022-08-29T00:36:40.396Z,997.22
2022-08-29T00:37:40.379Z,997.17
2022-08-29T00:38:41.840Z,997.16
2022-08-29T00:39:40.368Z,997.16
2022-08-29T00:40:40.467Z,997.23
2022-08-29T00:41:40.351Z,997.18
2022-08-29T00:42:40.346Z,997.22
2022-08-29T00:43:40.334Z,997.17
2022-08-29T00:44:40.330Z,997.23
2022-08-29T00:45:40.380Z,997.21
2022-08-29T00:46:40.317Z,997.25
2022-08-29T00:47:40.307Z,997.25
2022-08-29T00:48:40.295Z,997.41
2022-08-29T00:49:40.296Z,997.28
2022-08-29T00:50:40.316Z,997.32
2022-08-29T00:51:40.281Z,997.28
2022-08-29T00:52:40.269Z,997.25
2022-08-29T00:53:40.268Z,997.31
2022-08-29T00:54:40.259Z,997.32
2022-08-29T00:55:40.278Z,997.34
2022-08-29T00:56:40.235Z,997.28
2022-08-29T00:57:40.236Z,997.37
2022-08-29T00:58:40.225Z,997.38
2022-08-29T00:59:40.210Z,997.31
2022-08-29T01:00:40.298Z,997.37
2022-08-29T01:01:40.201Z,997.28
2022-08-29T01:02:40.717Z,997.32
2022-08-29T01:03:43.059Z,997.29
2022-08-29T01:04:40.173Z,997.39
2022-08-29T01:05:40.198Z,997.39
2022-08-29T01:06:40.154Z,997.37
2022-08-29T01:07:40.700Z,997.39
2022-08-29T01:08:40.147Z,997.36
2022-08-29T01:09:40.137Z,997.41
2022-08-29T01:10:40.159Z,997.41
2022-08-29T01:11:40.119Z,997.42
2022-08-29T01:12:40.102Z,997.40
2022-08-29T01:13:40.099Z,997.38
2022-08-29T01:14:40.097Z,997.44
2022-08-29T01:15:40.117Z,997.42
2022-08-29T01:16:40.126Z,997.46
2022-08-29T01:17:40.067Z,997.40
2022-08-29T01:18:40.060Z,997.45
2022-08-29T01:19:40.056Z,997.46
2022-08-29T01:20:40.080Z,997.44
2022-08-29T01:21:40.032Z,997.40
2022-08-29T01:22:41.034Z,997.41
2022-08-29T01:23:40.025Z,997.41
2022-08-29T01:24:40.014Z,997.43
2022-08-29T01:25:40.008Z,997.44
2022-08-29T01:26:40.030Z,997.42
2022-08-29T01:27:39.986Z,997.44
2022-08-29T01:28:39.978Z,997.41
2022-08-29T01:29:39.979Z,997.41
2022-08-29T01:30:39.967Z,997.40
2022-08-29T01:31:57.215Z,997.38
2022-08-29T01:32:40.947Z,997.36
2022-08-29T01:33:39.944Z,997.41
2022-08-29T01:34:39.959Z,997.44
2022-08-29T01:35:39.930Z,997.37
2022-08-29T01:36:39.961Z,997.38
2022-08-29T01:37:39.918Z,997.42
2022-08-29T01:38:39.904Z,997.38
2022-08-29T01:39:39.897Z,997.37
2022-08-29T01:40:39.943Z,997.43
2022-08-29T01:41:39.909Z,997.40
2022-08-29T01:42:39.875Z,997.39
2022-08-29T01:43:39.873Z,997.31
2022-08-29T01:44:39.869Z,997.38
2022-08-29T01:45:39.957Z,997.34
2022-08-29T01:46:39.874Z,997.34
2022-08-29T01:47:39.837Z,997.38
2022-08-29T01:48:39.831Z,997.30
2022-08-29T01:49:40.856Z,997.34
2022-08-29T01:50:39.818Z,997.37
2022-08-29T01:51:39.834Z,997.36
2022-08-29T01:52:39.794Z,997.37
2022-08-29T01:53:39.816Z,997.34
2022-08-29T01:54:39.781Z,997.40
2022-08-29T01:55:39.774Z,997.43
2022-08-29T01:56:39.798Z,997.43
2022-08-29T01:57:39.757Z,997.41
2022-08-29T01:58:39.747Z,997.40
2022-08-29T01:59:39.750Z,997.49
2022-08-29T02:00:39.810Z,997.50
2022-08-29T02:01:39.790Z,997.49
2022-08-29T02:02:40.318Z,997.48
2022-08-29T02:03:39.712Z,997.50
2022-08-29T02:04:39.700Z,997.52
2022-08-29T02:05:39.698Z,997.53
2022-08-29T02:06:39.715Z,997.55
2022-08-29T02:07:39.679Z,997.51
2022-08-29T02:08:39.674Z,997.52
2022-08-29T02:09:39.652Z,997.51
2022-08-29T02:10:41.659Z,997.52
2022-08-29T02:11:39.676Z,997.52
2022-08-29T02:12:39.647Z,997.51
2022-08-29T02:13:39.637Z,997.52
2022-08-29T02:14:39.633Z,997.51
2022-08-29T02:15:39.628Z,997.52
2022-08-29T02:16:39.676Z,997.48
2022-08-29T02:17:39.611Z,997.48
2022-08-29T02:18:39.599Z,997.50
2022-08-29T02:19:39.593Z,997.47
2022-08-29T02:20:39.584Z,997.52
2022-08-29T02:21:39.603Z,997.51
2022-08-29T02:22:39.574Z,997.57
2022-08-29T02:23:39.570Z,997.50
2022-08-29T02:24:39.562Z,997.55
2022-08-29T02:25:39.546Z,997.54
2022-08-29T02:26:39.566Z,997.56
2022-08-29T02:27:39.531Z,997.57
2022-08-29T02:28:39.518Z,997.55
2022-08-29T02:29:39.518Z,997.58
2022-08-29T02:30:39.511Z,997.57
2022-08-29T02:31:39.555Z,997.58
2022-08-29T02:32:39.489Z,997.68
2022-08-29T02:33:39.488Z,997.67
2022-08-29T02:34:39.483Z,997.68
2022-08-29T02:35:42.729Z,997.73
2022-08-29T02:36:41.551Z,997.66
2022-08-29T02:37:39.449Z,997.66
2022-08-29T02:38:39.443Z,997.62
2022-08-29T02:39:39.436Z,997.67
2022-08-29T02:40:39.481Z,997.65
2022-08-29T02:41:39.444Z,997.69
2022-08-29T02:42:39.429Z,997.69
2022-08-29T02:43:39.400Z,997.71
2022-08-29T02:44:39.400Z,997.71
2022-08-29T02:45:39.388Z,997.71
2022-08-29T02:46:39.526Z,997.72
2022-08-29T02:47:39.376Z,997.66
2022-08-29T02:48:39.367Z,997.67
2022-08-29T02:49:39.363Z,997.70
2022-08-29T02:50:39.357Z,997.70
2022-08-29T02:51:39.367Z,997.77
2022-08-29T02:52:39.336Z,997.80
2022-08-29T02:53:39.329Z,997.72
2022-08-29T02:54:39.331Z,997.72
2022-08-29T02:55:39.313Z,997.71
2022-08-29T02:56:39.341Z,997.75
2022-08-29T02:57:39.295Z,997.70
2022-08-29T02:58:39.300Z,997.71
2022-08-29T02:59:39.279Z,997.65
2022-08-29T03:00:39.335Z,997.71
2022-08-29T03:01:39.336Z,997.66
2022-08-29T03:02:39.265Z,997.68
2022-08-29T03:03:39.253Z,997.68
2022-08-29T03:04:39.236Z,997.63
2022-08-29T03:05:40.236Z,997.65
2022-08-29T03:06:39.230Z,997.59
2022-08-29T03:07:39.248Z,997.63
2022-08-29T03:08:39.215Z,997.60
2022-08-29T03:09:39.215Z,997.55
2022-08-29T03:10:39.224Z,997.58
2022-08-29T03:11:39.210Z,997.51
2022-08-29T03:12:39.185Z,997.57
2022-08-29T03:13:39.176Z,997.50
2022-08-29T03:14:39.160Z,997.56
2022-08-29T03:15:39.154Z,997.53
2022-08-29T03:16:39.240Z,997.52
2022-08-29T03:17:39.147Z,997.53
2022-08-29T03:18:39.139Z,997.60
2022-08-29T03:19:39.131Z,997.62
2022-08-29T03:20:39.210Z,997.60
2022-08-29T03:21:39.143Z,997.54
2022-08-29T03:22:39.107Z,997.61
2022-08-29T03:23:39.091Z,997.65
2022-08-29T03:24:39.087Z,997.63
2022-08-29T03:25:39.077Z,997.64
2022-08-29T03:26:39.099Z,997.59
2022-08-29T03:27:39.066Z,997.61
2022-08-29T03:28:39.059Z,997.61
2022-08-29T03:29:39.052Z,997.58
2022-08-29T03:30:39.041Z,997.57
2022-08-29T03:31:39.098Z,997.59
2022-08-29T03:32:39.025Z,997.53
2022-08-29T03:33:39.019Z,997.47
2022-08-29T03:34:39.014Z,997.52
2022-08-29T03:35:39.003Z,997.53
2022-08-29T03:36:39.028Z,997.46
2022-08-29T03:37:38.991Z,997.46
2022-08-29T03:38:38.976Z,997.45
2022-08-29T03:39:38.973Z,997.54
2022-08-29T03:40:39.033Z,997.50
2022-08-29T03:41:38.988Z,997.52
2022-08-29T03:42:38.947Z,997.51
2022-08-29T03:43:38.946Z,997.52
2022-08-29T03:44:38.942Z,997.54
2022-08-29T03:45:38.926Z,997.55
2022-08-29T03:46:38.939Z,997.53
2022-08-29T03:47:38.937Z,997.55
2022-08-29T03:48:38.898Z,997.55
2022-08-29T03:49:38.894Z,997.51
2022-08-29T03:50:38.883Z,997.61
2022-08-29T03:51:38.883Z,997.59
2022-08-29T03:52:38.890Z,997.55
2022-08-29T03:53:38.856Z,997.54
2022-08-29T03:54:38.842Z,997.54
2022-08-29T03:55:38.834Z,997.59
2022-08-29T03:56:38.831Z,997.53
2022-08-29T03:57:38.857Z,997.49
2022-08-29T03:58:38.820Z,997.62
2022-08-29T03:59:38.816Z,997.60
2022-08-29T04:00:38.809Z,997.52
2022-08-29T04:01:38.891Z,997.59
2022-08-29T04:02:38.851Z,997.56
2022-08-29T04:03:38.777Z,997.54
2022-08-29T04:04:38.772Z,997.56
2022-08-29T04:05:38.760Z,997.61
2022-08-29T04:06:38.779Z,997.60
2022-08-29T04:07:38.750Z,997.63
2022-08-29T04:08:38.736Z,997.63
2022-08-29T04:09:38.737Z,997.65
2022-08-29T04:10:38.729Z,997.71
2022-08-29T04:11:38.711Z,997.74
2022-08-29T04:12:38.727Z,997.69
2022-08-29T04:13:38.703Z,997.77
2022-08-29T04:14:38.692Z,997.79
2022-08-29T04:15:38.684Z,997.77
2022-08-29T04:16:38.713Z,997.76
2022-08-29T04:17:53.150Z,997.70
2022-08-29T04:18:39.659Z,997.76
2022-08-29T04:19:38.654Z,997.78
2022-08-29T04:20:38.646Z,997.78
2022-08-29T04:21:38.635Z,997.79
2022-08-29T04:22:38.659Z,997.82
2022-08-29T04:23:38.621Z,997.78
2022-08-29T04:24:38.613Z,997.84
2022-08-29T04:25:38.602Z,997.83
2022-08-29T04:26:38.587Z,997.83
2022-08-29T04:27:39.620Z,997.89
2022-08-29T04:28:38.586Z,997.91
2022-08-29T04:29:38.574Z,997.93
2022-08-29T04:30:38.571Z,997.92
2022-08-29T04:31:38.672Z,997.97
2022-08-29T04:32:38.580Z,997.99
2022-08-29T04:33:38.551Z,997.94
2022-08-29T04:34:38.554Z,997.97
2022-08-29T04:35:38.528Z,997.96
2022-08-29T04:36:38.522Z,997.97
2022-08-29T04:37:38.542Z,997.96
2022-08-29T04:38:38.508Z,998.03
2022-08-29T04:39:38.494Z,997.99
2022-08-29T04:40:38.545Z,998.02
2022-08-29T04:41:38.480Z,997.96
2022-08-29T04:42:38.504Z,997.98
2022-08-29T04:43:38.470Z,997.98
2022-08-29T04:44:38.461Z,998.01
2022-08-29T04:45:38.449Z,997.98
2022-08-29T04:46:38.466Z,997.93
2022-08-29T04:47:38.462Z,998.02
2022-08-29T04:48:38.428Z,998.03
2022-08-29T04:49:38.418Z,997.98
2022-08-29T04:50:38.421Z,997.98
2022-08-29T04:51:38.407Z,998.00
2022-08-29T04:52:38.429Z,998.02
2022-08-29T04:53:38.396Z,997.99
2022-08-29T04:54:38.390Z,998.04
2022-08-29T04:55:38.380Z,998.05
2022-08-29T04:56:38.373Z,998.10
2022-08-29T04:57:38.389Z,998.10
2022-08-29T04:58:38.357Z,998.09
2022-08-29T04:59:38.345Z,998.08
2022-08-29T05:00:38.339Z,998.11
2022-08-29T05:01:38.371Z,998.11
2022-08-29T05:02:38.378Z,998.14
2022-08-29T05:03:38.312Z,998.18
2022-08-29T05:04:38.307Z,998.19
2022-08-29T05:05:38.307Z,998.12
2022-08-29T05:06:38.297Z,998.14
2022-08-29T05:07:38.517Z,998.18
2022-08-29T05:08:38.278Z,998.24
2022-08-29T05:09:38.274Z,998.19
2022-08-29T05:10:38.263Z,998.20
2022-08-29T05:11:38.258Z,998.27
2022-08-29T05:12:38.279Z,998.25
2022-08-29T05:13:38.248Z,998.33
2022-08-29T05:14:38.232Z,998.24
2022-08-29T05:15:38.243Z,998.31
2022-08-29T05:16:38.219Z,998.26
2022-08-29T05:17:38.236Z,998.26
2022-08-29T05:18:38.198Z,998.28
2022-08-29T05:19:38.195Z,998.32
2022-08-29T05:20:39.181Z,998.33
2022-08-29T05:21:38.166Z,998.28
2022-08-29T05:22:39.201Z,998.34
2022-08-29T05:23:38.155Z,998.30
2022-08-29T05:24:38.153Z,998.36
2022-08-29T05:25:38.143Z,998.24
2022-08-29T05:26:38.139Z,998.35
2022-08-29T05:27:38.156Z,998.30
2022-08-29T05:28:38.118Z,998.31
2022-08-29T05:29:38.114Z,998.30
2022-08-29T05:30:38.105Z,998.35
2022-08-29T05:31:38.164Z,998.38
2022-08-29T05:32:38.120Z,998.38
2022-08-29T05:33:38.097Z,998.40
2022-08-29T05:34:38.072Z,998.44
2022-08-29T05:35:38.064Z,998.43
2022-08-29T05:36:38.063Z,998.41
2022-08-29T05:37:38.070Z,998.36
2022-08-29T05:38:38.035Z,998.43
2022-08-29T05:39:38.030Z,998.44
2022-08-29T05:40:38.071Z,998.52
2022-08-29T05:41:38.616Z,998.50
2022-08-29T05:42:38.042Z,998.50
2022-08-29T05:43:38.007Z,998.41
2022-08-29T05:44:37.991Z,998.52
2022-08-29T05:45:37.983Z,998.49
2022-08-29T05:46:37.995Z,998.49
2022-08-29T05:47:38.024Z,998.45
2022-08-29T05:48:37.984Z,998.45
2022-08-29T05:49:37.964Z,998.48
2022-08-29T05:50:37.951Z,998.54
2022-08-29T05:51:39.864Z,998.56
2022-08-29T05:52:38.937Z,998.59
2022-08-29T05:53:37.954Z,998.53
2022-08-29T05:54:37.925Z,998.51
2022-08-29T05:55:37.920Z,998.57
2022-08-29T05:56:37.912Z,998.58
2022-08-29T05:57:37.896Z,998.56
2022-08-29T05:58:37.915Z,998.61
2022-08-29T05:59:37.891Z,998.58
2022-08-29T06:00:37.883Z,998.65
2022-08-29T06:01:37.868Z,998.54
2022-08-29T06:02:37.966Z,998.61
2022-08-29T06:03:37.962Z,998.61
2022-08-29T06:04:37.848Z,998.62
2022-08-29T06:05:37.846Z,998.57
2022-08-29T06:06:37.838Z,998.63
2022-08-29T06:07:37.871Z,998.56
2022-08-29T06:08:37.843Z,998.57
2022-08-29T06:09:37.816Z,998.60
2022-08-29T06:10:37.815Z,998.61
2022-08-29T06:11:37.803Z,998.68
2022-08-29T06:12:37.791Z,998.68
2022-08-29T06:13:37.812Z,998.61
2022-08-29T06:14:37.779Z,998.56
2022-08-29T06:15:37.858Z,998.69
2022-08-29T06:16:37.773Z,998.68
2022-08-29T06:17:37.754Z,998.62
2022-08-29T06:18:37.774Z,998.66
2022-08-29T06:19:37.748Z,998.61
2022-08-29T06:20:37.730Z,998.62
2022-08-29T06:21:37.734Z,998.69
2022-08-29T06:22:40.326Z,998.74
2022-08-29T06:23:38.744Z,998.62
2022-08-29T06:24:37.700Z,998.70
2022-08-29T06:25:39.971Z,998.71
2022-08-29T06:26:38.703Z,998.75
2022-08-29T06:27:37.695Z,998.79
2022-08-29T06:28:37.709Z,998.80
2022-08-29T06:29:43.020Z,998.78
2022-08-29T06:30:38.726Z,998.80
2022-08-29T06:31:37.671Z,998.73
2022-08-29T06:32:37.662Z,998.74
2022-08-29T06:33:37.675Z,998.75
2022-08-29T06:34:37.643Z,998.75
2022-08-29T06:35:37.633Z,998.68
2022-08-29T06:36:37.625Z,998.74
2022-08-29T06:37:37.615Z,998.80
2022-08-29T06:38:37.647Z,998.75
2022-08-29T06:39:37.606Z,998.78
2022-08-29T06:40:37.661Z,998.78
2022-08-29T06:41:37.589Z,998.77
2022-08-29T06:42:37.589Z,998.80
2022-08-29T06:43:37.626Z,998.75
2022-08-29T06:44:40.257Z,998.75
2022-08-29T06:45:38.567Z,998.78
2022-08-29T06:46:37.625Z,998.79
2022-08-29T06:47:37.556Z,998.78
2022-08-29T06:48:37.572Z,998.74
2022-08-29T06:49:37.535Z,998.77
2022-08-29T06:50:38.335Z,998.76
2022-08-29T06:51:37.538Z,998.68
2022-08-29T06:52:37.525Z,998.77
2022-08-29T06:53:37.879Z,998.80
2022-08-29T06:54:37.508Z,998.79
2022-08-29T06:55:37.496Z,998.71
2022-08-29T06:56:37.510Z,998.75
2022-08-29T06:57:37.486Z,998.71
2022-08-29T06:58:37.513Z,998.72
2022-08-29T06:59:37.478Z,998.78
2022-08-29T07:00:37.469Z,998.86
2022-08-29T07:01:37.574Z,998.83
2022-08-29T07:02:37.525Z,998.70
2022-08-29T07:03:37.443Z,998.74
2022-08-29T07:04:37.463Z,998.76
2022-08-29T07:05:37.431Z,998.75
2022-08-29T07:06:37.428Z,998.72
2022-08-29T07:07:37.425Z,998.81
2022-08-29T07:08:42.208Z,998.77
2022-08-29T07:09:39.403Z,998.78
2022-08-29T07:10:37.397Z,998.81
2022-08-29T07:11:40.966Z,998.82
2022-08-29T07:12:38.382Z,998.83
2022-08-29T07:13:37.412Z,998.92
2022-08-29T07:14:37.370Z,998.85
2022-08-29T07:15:37.373Z,998.91
2022-08-29T07:16:37.353Z,998.94
2022-08-29T07:17:37.351Z,998.84
2022-08-29T07:18:37.344Z,998.91
2022-08-29T07:19:37.367Z,998.95
2022-08-29T07:20:37.325Z,998.91
2022-08-29T07:21:37.321Z,998.93
2022-08-29T07:22:37.315Z,998.93
2022-08-29T07:23:37.311Z,998.90
2022-08-29T07:24:37.321Z,998.99
2022-08-29T07:25:37.295Z,998.91
2022-08-29T07:26:37.282Z,998.82
2022-08-29T07:27:37.278Z,998.88
2022-08-29T07:28:38.446Z,998.83
2022-08-29T07:29:37.293Z,998.88
2022-08-29T07:30:37.340Z,998.85
2022-08-29T07:31:37.255Z,998.84
2022-08-29T07:32:37.250Z,998.81
2022-08-29T07:33:37.243Z,998.86
2022-08-29T07:34:37.263Z,998.72
2022-08-29T07:35:37.231Z,998.75
2022-08-29T07:36:37.226Z,998.77
2022-08-29T07:37:37.215Z,998.75
2022-08-29T07:38:37.207Z,998.76
2022-08-29T07:39:37.223Z,998.73
2022-08-29T07:40:37.228Z,998.68
2022-08-29T07:41:37.211Z,998.70
2022-08-29T07:42:37.172Z,998.72
2022-08-29T07:43:38.180Z,998.67
2022-08-29T07:44:37.190Z,998.70
2022-08-29T07:45:37.203Z,998.68
2022-08-29T07:46:37.157Z,998.75
2022-08-29T07:47:37.147Z,998.67
2022-08-29T07:48:37.173Z,998.66
2022-08-29T07:49:41.361Z,998.77
2022-08-29T07:50:38.134Z,998.75
2022-08-29T07:51:37.116Z,998.70
2022-08-29T07:52:38.116Z,998.68
2022-08-29T07:53:37.134Z,998.68
2022-08-29T07:54:37.100Z,998.69
2022-08-29T07:55:37.092Z,998.67
2022-08-29T07:56:38.060Z,998.67
2022-08-29T07:57:39.960Z,998.73
2022-08-29T07:58:37.105Z,998.78
2022-08-29T07:59:37.064Z,998.76
2022-08-29T08:00:37.102Z,998.64
2022-08-29T08:01:37.106Z,998.76
2022-08-29T08:02:37.116Z,998.71
2022-08-29T08:03:37.070Z,998.73
2022-08-29T08:04:37.046Z,998.67
2022-08-29T08:05:37.025Z,998.77
2022-08-29T08:06:37.021Z,998.77
2022-08-29T08:07:40.135Z,998.83
2022-08-29T08:08:37.010Z,998.78
2022-08-29T08:09:37.023Z,998.75
2022-08-29T08:10:36.987Z,998.71
2022-08-29T08:11:37.031Z,998.69
2022-08-29T08:12:36.978Z,998.67
2022-08-29T08:13:36.968Z,998.78
2022-08-29T08:14:36.989Z,998.73
2022-08-29T08:15:36.963Z,998.79
2022-08-29T08:16:37.019Z,998.77
2022-08-29T08:17:39.826Z,998.83
2022-08-29T08:18:37.936Z,998.78
2022-08-29T08:19:36.954Z,998.74
2022-08-29T08:20:36.926Z,998.85
2022-08-29T08:21:36.919Z,998.80
2022-08-29T08:22:37.909Z,998.74
2022-08-29T08:23:36.897Z,998.77
2022-08-29T08:24:36.917Z,998.71
2022-08-29T08:25:36.886Z,998.72
2022-08-29T08:26:36.884Z,998.68
2022-08-29T08:27:41.056Z,998.71
2022-08-29T08:28:38.864Z,998.69
2022-08-29T08:29:36.905Z,998.75
2022-08-29T08:30:36.864Z,998.75
2022-08-29T08:31:36.901Z,998.70
2022-08-29T08:32:36.834Z,998.70
2022-08-29T08:33:36.827Z,998.64
2022-08-29T08:34:36.840Z,998.64
2022-08-29T08:35:36.810Z,998.63
2022-08-29T08:36:40.782Z,998.61
2022-08-29T08:37:37.858Z,998.62
2022-08-29T08:38:36.785Z,998.62
2022-08-29T08:39:36.812Z,998.62
2022-08-29T08:40:36.925Z,998.63
2022-08-29T08:41:37.758Z,998.61
2022-08-29T08:42:37.759Z,998.56
2022-08-29T08:43:36.757Z,998.56
2022-08-29T08:44:36.775Z,998.65
2022-08-29T08:45:36.785Z,998.60
2022-08-29T08:46:36.736Z,998.56
2022-08-29T08:47:36.729Z,998.57
2022-08-29T08:48:36.713Z,998.55
2022-08-29T08:49:36.747Z,998.58
2022-08-29T08:50:36.708Z,998.62
2022-08-29T08:51:36.698Z,998.54
2022-08-29T08:52:36.697Z,998.56
2022-08-29T08:53:36.686Z,998.44
2022-08-29T08:54:36.711Z,998.52
2022-08-29T08:55:36.675Z,998.52
2022-08-29T08:56:36.665Z,998.51
2022-08-29T08:57:36.656Z,998.48
2022-08-29T08:58:36.645Z,998.50
2022-08-29T08:59:36.685Z,998.48
2022-08-29T09:00:36.634Z,998.50
2022-08-29T09:01:36.639Z,998.49
2022-08-29T09:02:36.733Z,998.47
2022-08-29T09:03:36.648Z,998.49
2022-08-29T09:04:36.606Z,998.50
2022-08-29T09:05:36.596Z,998.42
2022-08-29T09:06:36.593Z,998.50
2022-08-29T09:07:36.594Z,998.47
2022-08-29T09:08:36.580Z,998.47
2022-08-29T09:09:36.596Z,998.54
2022-08-29T09:10:36.567Z,998.56
2022-08-29T09:11:36.563Z,998.55
2022-08-29T09:12:36.557Z,998.50
2022-08-29T09:13:36.540Z,998.55
2022-08-29T09:14:36.565Z,998.47
2022-08-29T09:15:36.527Z,998.48
2022-08-29T09:16:36.562Z,998.47
2022-08-29T09:17:36.623Z,998.44
2022-08-29T09:18:36.518Z,998.50
2022-08-29T09:19:36.528Z,998.49
2022-08-29T09:20:36.493Z,998.45
2022-08-29T09:21:40.900Z,998.42
2022-08-29T09:22:37.477Z,998.44
2022-08-29T09:23:36.470Z,998.41
2022-08-29T09:24:36.493Z,998.38
2022-08-29T09:25:36.511Z,998.39
2022-08-29T09:26:36.447Z,998.37
2022-08-29T09:27:36.437Z,998.40
2022-08-29T09:28:36.431Z,998.36
2022-08-29T09:29:36.449Z,998.42
2022-08-29T09:30:36.416Z,998.32
2022-08-29T09:31:36.461Z,998.41
2022-08-29T09:32:36.403Z,998.33
2022-08-29T09:33:36.397Z,998.36
2022-08-29T09:34:57.011Z,998.39
2022-08-29T09:35:38.379Z,998.39
2022-08-29T09:36:36.371Z,998.40
2022-08-29T09:37:36.369Z,998.40
2022-08-29T09:38:36.354Z,998.43
2022-08-29T09:39:36.369Z,998.42
2022-08-29T09:40:36.394Z,998.37
2022-08-29T09:41:36.340Z,998.41
2022-08-29T09:42:36.323Z,998.37
2022-08-29T09:43:36.318Z,998.35
2022-08-29T09:44:36.335Z,998.34
2022-08-29T09:45:36.344Z,998.35
2022-08-29T09:46:36.301Z,998.42
2022-08-29T09:47:36.287Z,998.38
2022-08-29T09:48:36.281Z,998.45
2022-08-29T09:49:36.302Z,998.39
2022-08-29T09:50:36.265Z,998.33
2022-08-29T09:51:36.268Z,998.36
2022-08-29T09:52:36.253Z,998.41
2022-08-29T09:53:36.245Z,998.45
2022-08-29T09:54:36.270Z,998.46
2022-08-29T09:55:36.227Z,998.48
2022-08-29T09:56:36.220Z,998.46
2022-08-29T09:57:36.210Z,998.41
2022-08-29T09:58:39.773Z,998.41
2022-08-29T09:59:37.223Z,998.36
2022-08-29T10:00:36.188Z,998.35
2022-08-29T10:01:36.862Z,998.35
2022-08-29T10:02:36.262Z,998.35
2022-08-29T10:03:36.173Z,998.32
2022-08-29T10:04:36.191Z,998.38
2022-08-29T10:05:36.159Z,998.35
2022-08-29T10:06:39.993Z,998.32
2022-08-29T10:07:37.675Z,998.32
2022-08-29T10:08:36.138Z,998.26
2022-08-29T10:09:36.139Z,998.27
2022-08-29T10:10:37.120Z,998.29
2022-08-29T10:11:36.111Z,998.30
2022-08-29T10:12:36.109Z,998.35
2022-08-29T10:13:36.097Z,998.40
2022-08-29T10:14:36.116Z,998.31
2022-08-29T10:15:51.689Z,998.24
2022-08-29T10:16:38.210Z,998.30
2022-08-29T10:17:36.062Z,998.30
2022-08-29T10:18:36.057Z,998.31
2022-08-29T10:19:36.083Z,998.26
2022-08-29T10:20:36.041Z,998.22
2022-08-29T10:21:36.021Z,998.31
2022-08-29T10:22:37.031Z,998.32
2022-08-29T10:23:36.028Z,998.25
2022-08-29T10:24:36.028Z,998.30
2022-08-29T10:25:36.029Z,998.29
2022-08-29T10:26:35.992Z,998.28
2022-08-29T10:27:35.990Z,998.27
2022-08-29T10:28:35.971Z,998.29
2022-08-29T10:29:36.972Z,998.20
2022-08-29T10:30:36.400Z,998.24
2022-08-29T10:31:36.052Z,998.20
2022-08-29T10:32:35.944Z,998.19
2022-08-29T10:33:35.940Z,998.16
2022-08-29T10:34:35.928Z,998.20
2022-08-29T10:35:35.948Z,998.18
2022-08-29T10:36:35.921Z,998.17
2022-08-29T10:37:35.912Z,998.25
2022-08-29T10:38:35.903Z,998.22
2022-08-29T10:39:35.903Z,998.20
2022-08-29T10:40:35.996Z,998.22
2022-08-29T10:41:35.885Z,998.21
2022-08-29T10:42:35.877Z,998.20
2022-08-29T10:43:35.865Z,998.27
2022-08-29T10:44:35.866Z,998.32
2022-08-29T10:45:35.928Z,998.26
2022-08-29T10:46:35.850Z,998.24
2022-08-29T10:47:35.840Z,998.30
2022-08-29T10:48:35.830Z,998.29
2022-08-29T10:49:35.827Z,998.33
2022-08-29T10:50:45.041Z,998.28
2022-08-29T10:51:37.809Z,998.33
2022-08-29T10:52:35.805Z,998.29
2022-08-29T10:53:35.798Z,998.29
2022-08-29T10:54:35.793Z,998.20
2022-08-29T10:55:35.813Z,998.21
2022-08-29T10:56:35.773Z,998.22
2022-08-29T10:57:35.764Z,998.20
2022-08-29T10:58:35.761Z,998.32
2022-08-29T10:59:35.751Z,998.24
2022-08-29T11:00:35.798Z,998.23
2022-08-29T11:01:35.858Z,998.30
2022-08-29T11:02:35.728Z,998.26
2022-08-29T11:03:35.745Z,998.16
2022-08-29T11:04:35.715Z,998.19
2022-08-29T11:05:35.740Z,998.22
2022-08-29T11:07:35.694Z,998.21
2022-08-29T11:08:35.685Z,998.21
2022-08-29T11:09:35.675Z,998.21
2022-08-29T11:10:35.703Z,998.21
2022-08-29T11:11:35.659Z,998.22
2022-08-29T11:12:35.658Z,998.18
2022-08-29T11:13:35.695Z,998.20
2022-08-29T11:14:35.659Z,998.16
2022-08-29T11:15:35.657Z,998.15
2022-08-29T11:16:35.682Z,998.17
2022-08-29T11:17:35.622Z,998.14
2022-08-29T11:18:35.609Z,998.12
2022-08-29T11:19:35.607Z,998.11
2022-08-29T11:20:35.627Z,998.12
2022-08-29T11:21:35.589Z,998.17
2022-08-29T11:22:35.592Z,998.10
2022-08-29T11:23:35.575Z,998.14
2022-08-29T11:24:37.348Z,998.03
2022-08-29T11:25:35.585Z,998.07
2022-08-29T11:26:35.550Z,998.05
2022-08-29T11:27:35.545Z,998.00
2022-08-29T11:28:35.592Z,997.96
2022-08-29T11:29:35.524Z,998.03
2022-08-29T11:30:39.751Z,998.00
2022-08-29T11:31:37.549Z,997.98
2022-08-29T11:32:36.263Z,998.00
2022-08-29T11:33:35.497Z,998.00
2022-08-29T11:34:35.490Z,998.09
2022-08-29T11:35:35.522Z,997.95
2022-08-29T11:36:35.473Z,997.92
2022-08-29T11:37:35.468Z,997.94
2022-08-29T11:38:35.449Z,997.92
2022-08-29T11:39:36.449Z,997.94
2022-08-29T11:41:37.486Z,997.91
2022-08-29T11:42:51.199Z,997.82
2022-08-29T11:43:37.420Z,997.85
2022-08-29T11:44:35.415Z,997.79
2022-08-29T11:45:36.839Z,997.89
2022-08-29T11:46:35.451Z,997.87
2022-08-29T11:47:40.750Z,997.88
2022-08-29T11:48:36.374Z,997.87
2022-08-29T11:49:35.368Z,997.94
2022-08-29T11:50:35.366Z,997.95
2022-08-29T11:51:36.228Z,997.89
2022-08-29T11:52:36.351Z,997.80
2022-08-29T11:53:35.340Z,997.91
2022-08-29T11:54:35.576Z,997.84
2022-08-29T11:55:35.325Z,997.92
2022-08-29T11:56:35.339Z,997.91
2022-08-29T11:57:35.309Z,997.87
2022-08-29T11:58:35.303Z,997.87
2022-08-29T11:59:35.292Z,997.91
2022-08-29T12:00:35.284Z,997.84
2022-08-29T12:01:35.304Z,997.87
2022-08-29T12:02:35.265Z,997.84
2022-08-29T12:03:35.690Z,997.85
2022-08-29T12:04:35.288Z,997.84
2022-08-29T12:05:35.250Z,997.82
2022-08-29T12:06:35.265Z,997.84
2022-08-29T12:07:35.233Z,997.83
2022-08-29T12:08:37.562Z,997.83
2022-08-29T12:09:36.222Z,997.81
2022-08-29T12:10:35.217Z,997.81
2022-08-29T12:11:35.228Z,997.86
2022-08-29T12:12:35.190Z,997.82
2022-08-29T12:13:35.188Z,997.76
2022-08-29T12:14:37.902Z,997.80
2022-08-29T12:15:36.170Z,997.71
2022-08-29T12:16:35.217Z,997.85
2022-08-29T12:17:58.188Z,997.79
2022-08-29T12:18:37.136Z,997.73
2022-08-29T12:19:36.141Z,997.78
2022-08-29T12:20:35.131Z,997.75
2022-08-29T12:21:35.147Z,997.72
2022-08-29T12:22:35.148Z,997.74
2022-08-29T12:23:35.748Z,997.67
2022-08-29T12:24:35.100Z,997.74
2022-08-29T12:25:35.093Z,997.66
2022-08-29T12:26:35.109Z,997.66
2022-08-29T12:27:35.079Z,997.61
2022-08-29T12:28:35.071Z,997.62
2022-08-29T12:29:43.657Z,997.64
2022-08-29T12:30:36.055Z,997.69